createdAt,value
2022-11-17T00:01:37.255Z,4.10
2022-11-17T00:04:07.105Z,4.00
2022-11-17T00:06:37.036Z,4.00
2022-11-17T00:09:06.960Z,4.00
2022-11-17T00:11:51.674Z,4.00
2022-11-17T00:14:36.930Z,4.00
2022-11-17T00:17:09.759Z,4.00
2022-11-17T00:19:52.354Z,4.00
2022-11-17T00:22:22.675Z,4.00
2022-11-17T00:24:52.939Z,4.00
2022-11-17T00:27:25.366Z,4.00
2022-11-17T00:29:55.295Z,3.90
2022-11-17T00:32:37.802Z,3.90
2022-11-17T00:35:09.037Z,3.90
2022-11-17T00:38:01.485Z,3.90
2022-11-17T00:40:31.727Z,3.90
2022-11-17T00:43:04.167Z,3.80
2022-11-17T00:45:33.994Z,3.90
2022-11-17T00:48:03.875Z,3.90
2022-11-17T00:50:33.702Z,3.80
2022-11-17T00:53:03.588Z,3.80
2022-11-17T00:55:33.568Z,3.80
2022-11-17T00:58:06.347Z,3.80
2022-11-17T01:00:36.165Z,3.80
2022-11-17T01:03:06.032Z,3.80
2022-11-17T01:05:37.588Z,3.80
2022-11-17T01:08:08.067Z,3.80
2022-11-17T01:10:38.486Z,3.80
2022-11-17T01:13:10.936Z,3.70
2022-11-17T01:15:40.770Z,3.80
2022-11-17T01:18:11.112Z,3.70
2022-11-17T01:20:41.053Z,3.70
2022-11-17T01:23:10.907Z,3.70
2022-11-17T01:25:40.939Z,3.70
2022-11-17T01:28:13.360Z,3.70
2022-11-17T01:30:43.199Z,3.80
2022-11-17T01:33:13.092Z,3.70
2022-11-17T01:35:42.919Z,3.70
2022-11-17T01:38:12.762Z,3.70
2022-11-17T01:40:42.610Z,3.70
2022-11-17T01:43:15.474Z,3.70
2022-11-17T01:45:45.678Z,3.70
2022-11-17T01:48:17.691Z,3.70
2022-11-17T01:50:50.414Z,3.70
2022-11-17T01:53:23.392Z,3.70
2022-11-17T01:55:59.196Z,3.70
2022-11-17T01:58:34.763Z,3.70
2022-11-17T02:01:04.934Z,3.70
2022-11-17T02:03:36.029Z,3.70
2022-11-17T02:06:10.982Z,3.60
2022-11-17T02:08:44.253Z,3.60
2022-11-17T02:11:18.499Z,3.60
2022-11-17T02:13:54.712Z,3.60
2022-11-17T02:16:24.547Z,3.60
2022-11-17T02:18:54.437Z,3.60
2022-11-17T02:22:22.281Z,3.60
2022-11-17T02:25:28.993Z,3.60
2022-11-17T02:28:16.534Z,3.60
2022-11-17T02:31:03.629Z,3.60
2022-11-17T02:33:45.678Z,3.60
2022-11-17T02:36:23.116Z,3.60
2022-11-17T02:39:02.779Z,3.50
2022-11-17T02:41:39.008Z,3.60
2022-11-17T02:44:16.324Z,3.60
2022-11-17T02:46:50.399Z,3.60
2022-11-17T02:49:26.263Z,3.60
2022-11-17T02:51:59.697Z,3.60
2022-11-17T02:54:33.598Z,3.60
2022-11-17T02:57:03.689Z,3.60
2022-11-17T02:59:40.343Z,3.60
2022-11-17T03:02:46.928Z,3.60
2022-11-17T03:05:23.591Z,3.60
2022-11-17T03:08:12.199Z,3.50
2022-11-17T03:10:53.781Z,3.60
2022-11-17T03:13:36.954Z,3.50
2022-11-17T03:16:19.685Z,3.50
2022-11-17T03:19:03.636Z,3.50
2022-11-17T03:21:40.906Z,3.60
2022-11-17T03:24:16.973Z,3.50
2022-11-17T03:26:54.572Z,3.50
2022-11-17T03:29:29.043Z,3.60
2022-11-17T03:32:05.300Z,3.50
2022-11-17T03:34:48.141Z,3.50
2022-11-17T03:37:22.133Z,3.50
2022-11-17T03:39:55.778Z,3.50
2022-11-17T03:42:29.941Z,3.50
2022-11-17T03:45:06.118Z,3.60
2022-11-17T03:47:39.480Z,3.50
2022-11-17T03:50:16.207Z,3.50
2022-11-17T03:52:47.659Z,3.50
2022-11-17T03:55:18.441Z,3.50
2022-11-17T03:57:56.826Z,3.50
2022-11-17T04:00:26.695Z,3.60
2022-11-17T04:03:01.385Z,3.50
2022-11-17T04:05:31.379Z,3.50
2022-11-17T04:08:01.240Z,3.50
2022-11-17T04:10:31.239Z,3.50
2022-11-17T04:13:13.573Z,3.50
2022-11-17T04:15:56.143Z,3.50
2022-11-17T04:18:28.890Z,3.50
2022-11-17T04:20:59.978Z,3.50
2022-11-17T04:23:29.847Z,3.60
2022-11-17T04:26:13.173Z,3.50
2022-11-17T04:28:46.656Z,3.60
2022-11-17T04:31:18.714Z,3.60
2022-11-17T04:33:52.785Z,3.60
2022-11-17T04:36:25.451Z,3.60
2022-11-17T04:38:57.576Z,3.60
2022-11-17T04:41:42.331Z,3.60
2022-11-17T04:44:14.974Z,3.60
2022-11-17T04:46:46.107Z,3.60
2022-11-17T04:49:20.758Z,3.70
2022-11-17T04:51:51.455Z,3.70
2022-11-17T04:54:24.586Z,3.60
2022-11-17T04:56:55.335Z,3.60
2022-11-17T04:59:25.771Z,3.70
2022-11-17T05:01:57.003Z,3.70
2022-11-17T05:04:43.691Z,3.70
2022-11-17T05:07:13.565Z,3.70
2022-11-17T05:09:43.422Z,3.70
2022-11-17T05:12:25.768Z,3.70
2022-11-17T05:14:55.583Z,3.70
2022-11-17T05:17:22.863Z,3.70
2022-11-17T05:19:55.271Z,3.70
2022-11-17T05:22:39.247Z,3.70
2022-11-17T05:25:10.699Z,3.70
2022-11-17T05:27:40.833Z,3.70
2022-11-17T05:30:13.589Z,3.80
2022-11-17T05:32:43.421Z,3.80
2022-11-17T05:35:15.985Z,3.80
2022-11-17T05:37:45.822Z,3.80
2022-11-17T05:40:16.024Z,3.80
2022-11-17T05:42:45.882Z,3.80
2022-11-17T05:45:15.724Z,3.80
2022-11-17T05:47:45.601Z,3.80
2022-11-17T05:50:19.272Z,3.90
2022-11-17T05:52:49.153Z,3.80
2022-11-17T05:55:19.138Z,3.90
2022-11-17T05:57:49.604Z,3.90
2022-11-17T06:00:20.344Z,3.90
2022-11-17T06:02:56.162Z,3.90
2022-11-17T06:05:28.637Z,3.90
2022-11-17T06:07:59.590Z,3.90
2022-11-17T06:10:30.113Z,4.00
2022-11-17T06:12:59.937Z,3.90
2022-11-17T06:15:29.956Z,4.00
2022-11-17T06:18:05.256Z,4.00
2022-11-17T06:20:42.175Z,4.10
2022-11-17T06:23:14.237Z,4.00
2022-11-17T06:25:44.368Z,4.00
2022-11-17T06:28:18.306Z,4.10
2022-11-17T06:30:48.357Z,4.10
2022-11-17T06:33:20.510Z,4.10
2022-11-17T06:35:53.238Z,4.10
2022-11-17T06:38:23.208Z,4.10
2022-11-17T06:40:53.415Z,4.10
2022-11-17T06:43:23.299Z,4.20
2022-11-17T06:45:53.214Z,4.20
2022-11-17T06:48:27.113Z,4.20
2022-11-17T06:50:59.592Z,4.20
2022-11-17T06:53:29.437Z,4.20
2022-11-17T06:56:09.816Z,4.20
2022-11-17T06:58:42.591Z,4.30
2022-11-17T07:01:14.895Z,4.20
2022-11-17T07:03:45.732Z,4.20
2022-11-17T07:06:19.150Z,4.30
2022-11-17T07:08:50.845Z,4.30
2022-11-17T07:11:20.890Z,4.30
2022-11-17T07:13:50.749Z,4.30
2022-11-17T07:16:23.958Z,4.30
2022-11-17T07:18:55.285Z,4.30
2022-11-17T07:21:27.766Z,4.30
2022-11-17T07:23:57.649Z,4.30
2022-11-17T07:26:27.814Z,4.30
2022-11-17T07:28:57.915Z,4.30
2022-11-17T07:31:27.764Z,4.30
2022-11-17T07:33:57.646Z,4.30
2022-11-17T07:36:30.085Z,4.40
2022-11-17T07:38:59.934Z,4.30
2022-11-17T07:41:29.863Z,4.30
2022-11-17T07:43:59.736Z,4.40
2022-11-17T07:46:29.627Z,4.40
2022-11-17T07:48:59.684Z,4.40
2022-11-17T07:51:32.108Z,4.40
2022-11-17T07:54:01.974Z,4.40
2022-11-17T07:56:31.837Z,4.40
2022-11-17T07:59:01.669Z,4.40
2022-11-17T08:01:31.601Z,4.40
2022-11-17T08:04:01.675Z,4.40
2022-11-17T08:06:34.212Z,4.40
2022-11-17T08:09:04.078Z,4.40
2022-11-17T08:11:34.353Z,4.40
2022-11-17T08:14:06.965Z,4.40
2022-11-17T08:16:36.950Z,4.40
2022-11-17T08:19:06.919Z,4.40
2022-11-17T08:21:41.078Z,4.40
2022-11-17T08:24:11.695Z,4.40
2022-11-17T08:26:41.575Z,4.40
2022-11-17T08:29:11.720Z,4.40
2022-11-17T08:31:46.044Z,4.40
2022-11-17T08:34:16.484Z,4.50
2022-11-17T08:36:48.930Z,4.50
2022-11-17T08:39:18.794Z,4.50
2022-11-17T08:41:48.685Z,4.50
2022-11-17T08:44:18.522Z,4.50
2022-11-17T08:46:49.094Z,4.50
2022-11-17T08:49:18.921Z,4.50
2022-11-17T08:51:51.347Z,4.50
2022-11-17T08:54:21.230Z,4.50
2022-11-17T08:56:51.218Z,4.50
2022-11-17T08:59:21.107Z,4.50
2022-11-17T09:01:50.987Z,4.50
2022-11-17T09:04:21.440Z,4.50
2022-11-17T09:06:54.044Z,4.50
2022-11-17T09:09:24.339Z,4.50
2022-11-17T09:11:54.259Z,4.50
2022-11-17T09:14:24.105Z,4.60
2022-11-17T09:16:53.986Z,4.50
2022-11-17T09:19:23.833Z,4.60
2022-11-17T09:21:56.292Z,4.60
2022-11-17T09:24:26.799Z,4.60
2022-11-17T09:26:57.486Z,4.60
2022-11-17T09:29:27.418Z,4.60
2022-11-17T09:31:57.666Z,4.60
2022-11-17T09:34:29.382Z,4.60
2022-11-17T09:37:01.904Z,4.60
2022-11-17T09:39:31.741Z,4.60
2022-11-17T09:42:02.047Z,4.60
2022-11-17T09:44:40.332Z,4.70
2022-11-17T09:47:25.861Z,4.70
2022-11-17T09:50:00.758Z,4.70
2022-11-17T09:52:39.617Z,4.70
2022-11-17T09:55:29.694Z,4.70
2022-11-17T09:58:14.082Z,4.80
2022-11-17T10:00:48.920Z,4.70
2022-11-17T10:03:21.574Z,4.80
2022-11-17T10:05:52.356Z,4.80
2022-11-17T10:08:37.583Z,4.80
2022-11-17T10:11:31.643Z,4.80
2022-11-17T10:14:05.647Z,4.80
2022-11-17T10:16:35.505Z,4.80
2022-11-17T10:19:14.152Z,4.80
2022-11-17T10:21:44.042Z,4.80
2022-11-17T10:24:37.738Z,4.90
2022-11-17T10:27:21.495Z,4.80
2022-11-17T10:30:03.545Z,4.80
2022-11-17T10:32:35.575Z,4.80
2022-11-17T10:35:21.082Z,4.90
2022-11-17T10:37:58.531Z,4.80
2022-11-17T10:40:34.085Z,4.80
2022-11-17T10:43:21.392Z,4.80
2022-11-17T10:45:54.176Z,4.90
2022-11-17T10:48:29.834Z,4.90
2022-11-17T10:51:02.151Z,4.90
2022-11-17T10:53:44.840Z,4.90
2022-11-17T10:56:22.211Z,4.90
2022-11-17T10:59:04.119Z,4.90
2022-11-17T11:01:36.504Z,4.90
2022-11-17T11:04:09.386Z,4.90
2022-11-17T11:06:39.350Z,4.90
2022-11-17T11:09:17.023Z,5.00
2022-11-17T11:11:52.149Z,5.00
2022-11-17T11:14:30.461Z,5.00
2022-11-17T11:17:00.755Z,5.00
2022-11-17T11:19:32.137Z,5.00
2022-11-17T11:22:30.159Z,5.00
2022-11-17T11:25:12.226Z,5.00
2022-11-17T11:27:59.824Z,4.90
2022-11-17T11:30:30.345Z,5.00
2022-11-17T11:33:28.437Z,4.90
2022-11-17T11:36:11.404Z,4.90
2022-11-17T11:38:55.065Z,4.90
2022-11-17T11:41:53.706Z,4.90
2022-11-17T11:44:47.213Z,4.90
2022-11-17T11:47:37.442Z,4.90
2022-11-17T11:50:16.968Z,4.90
2022-11-17T11:52:51.644Z,4.90
2022-11-17T11:55:27.371Z,4.90
2022-11-17T11:58:09.273Z,4.90
2022-11-17T12:00:43.219Z,4.90
2022-11-17T12:03:24.550Z,4.90
2022-11-17T12:06:29.594Z,4.90
2022-11-17T12:09:18.583Z,4.90
2022-11-17T12:12:02.202Z,4.90
2022-11-17T12:14:34.413Z,4.90
2022-11-17T12:17:23.312Z,4.90
2022-11-17T12:19:59.838Z,4.90
2022-11-17T12:22:53.001Z,4.90
2022-11-17T12:25:27.327Z,4.90
2022-11-17T12:27:57.429Z,4.90
2022-11-17T12:30:55.321Z,4.90
2022-11-17T12:34:13.101Z,4.90
2022-11-17T12:36:43.407Z,4.90
2022-11-17T12:39:56.243Z,4.90
2022-11-17T12:42:26.396Z,4.90
2022-11-17T12:45:04.887Z,4.90
2022-11-17T12:47:36.961Z,4.90
2022-11-17T12:50:44.472Z,4.90
2022-11-17T12:53:56.558Z,4.90
2022-11-17T12:56:56.634Z,4.80
2022-11-17T13:00:00.472Z,4.90
2022-11-17T13:03:03.023Z,4.90
2022-11-17T13:05:35.868Z,4.90
2022-11-17T13:08:24.707Z,4.90
2022-11-17T13:11:06.953Z,4.80
2022-11-17T13:13:37.762Z,4.80
2022-11-17T13:16:11.939Z,4.80
2022-11-17T13:18:44.435Z,4.80
2022-11-17T13:21:33.211Z,4.80
2022-11-17T13:24:03.573Z,4.80
2022-11-17T13:26:38.129Z,4.80
2022-11-17T13:29:11.652Z,4.80
2022-11-17T13:31:42.309Z,4.80
2022-11-17T13:34:21.448Z,4.80
2022-11-17T13:37:02.698Z,4.80
2022-11-17T13:39:32.683Z,4.80
2022-11-17T13:42:05.353Z,4.80
2022-11-17T13:44:36.569Z,4.80
2022-11-17T13:47:21.898Z,4.80
2022-11-17T13:49:52.104Z,4.70
2022-11-17T13:52:40.723Z,4.70
2022-11-17T13:55:20.761Z,4.70
2022-11-17T13:57:58.691Z,4.70
2022-11-17T14:00:30.965Z,4.70
2022-11-17T14:03:03.550Z,4.70
2022-11-17T14:05:35.487Z,4.70
2022-11-17T14:08:31.853Z,4.70
2022-11-17T14:11:26.249Z,4.70
2022-11-17T14:13:58.980Z,4.60
2022-11-17T14:16:31.446Z,4.60
2022-11-17T14:19:04.759Z,4.60
2022-11-17T14:21:35.553Z,4.60
2022-11-17T14:24:14.594Z,4.60
2022-11-17T14:26:46.560Z,4.50
2022-11-17T14:29:16.922Z,4.50
2022-11-17T14:31:46.859Z,4.50
2022-11-17T14:34:17.569Z,4.50
2022-11-17T14:36:48.049Z,4.40
2022-11-17T14:39:21.427Z,4.40
2022-11-17T14:41:53.580Z,4.40
2022-11-17T14:44:23.857Z,4.40
2022-11-17T14:46:53.718Z,4.40
2022-11-17T14:49:23.561Z,4.40
2022-11-17T14:51:55.394Z,4.30
2022-11-17T14:54:27.955Z,4.30
2022-11-17T14:56:57.824Z,4.30
2022-11-17T14:59:27.885Z,4.30
2022-11-17T15:01:57.839Z,4.30
2022-11-17T15:04:49.327Z,4.30
2022-11-17T15:07:17.581Z,4.30
2022-11-17T15:09:50.146Z,4.30
2022-11-17T15:12:20.001Z,4.30
2022-11-17T15:14:50.495Z,4.30
2022-11-17T15:17:20.396Z,4.20
2022-11-17T15:19:50.237Z,4.20
2022-11-17T15:22:20.522Z,4.30
2022-11-17T15:24:53.357Z,4.20
2022-11-17T15:27:23.819Z,4.20
2022-11-17T15:29:54.043Z,4.20
2022-11-17T15:32:24.065Z,4.20
2022-11-17T15:34:54.130Z,4.30
2022-11-17T15:37:24.160Z,4.20
2022-11-17T15:39:56.658Z,4.20
2022-11-17T15:42:26.550Z,4.30
2022-11-17T15:44:56.677Z,4.20
2022-11-17T15:47:26.591Z,4.30
2022-11-17T15:49:58.663Z,4.20
2022-11-17T15:52:48.817Z,4.20
2022-11-17T15:55:21.474Z,4.20
2022-11-17T15:57:51.479Z,4.20
2022-11-17T16:00:22.188Z,4.20
2022-11-17T16:02:58.492Z,4.20
2022-11-17T16:05:28.924Z,4.20
2022-11-17T16:07:58.785Z,4.20
2022-11-17T16:10:31.810Z,4.20
2022-11-17T16:13:01.715Z,4.20
2022-11-17T16:15:31.615Z,4.20
2022-11-17T16:18:01.486Z,4.20
2022-11-17T16:20:31.421Z,4.20
2022-11-17T16:23:01.337Z,4.20
2022-11-17T16:25:33.761Z,4.20
2022-11-17T16:28:03.597Z,4.20
2022-11-17T16:30:35.564Z,4.20
2022-11-17T16:33:06.727Z,4.10
2022-11-17T16:35:36.825Z,4.10
2022-11-17T16:38:06.761Z,4.10
2022-11-17T16:40:39.893Z,4.10
2022-11-17T16:43:10.053Z,4.10
2022-11-17T16:45:46.224Z,4.10
2022-11-17T16:48:16.190Z,4.10
2022-11-17T16:50:46.865Z,4.00
2022-11-17T16:53:16.911Z,4.00
2022-11-17T16:55:49.342Z,4.00
2022-11-17T16:58:21.908Z,4.00
2022-11-17T17:00:51.813Z,4.00
2022-11-17T17:03:21.705Z,4.00
2022-11-17T17:05:51.563Z,4.00
2022-11-17T17:08:21.441Z,4.00
2022-11-17T17:10:53.855Z,4.00
2022-11-17T17:13:23.739Z,4.00
2022-11-17T17:15:53.558Z,4.00
2022-11-17T17:18:23.787Z,4.00
2022-11-17T17:20:54.837Z,4.00
2022-11-17T17:23:24.925Z,4.00
2022-11-17T17:26:06.590Z,4.00
2022-11-17T17:28:40.547Z,3.90
2022-11-17T17:31:12.680Z,3.90
2022-11-17T17:33:44.249Z,3.90
2022-11-17T17:36:16.710Z,3.90
2022-11-17T17:38:51.812Z,3.90
2022-11-17T17:41:29.844Z,3.80
2022-11-17T17:44:02.264Z,3.90
2022-11-17T17:46:33.855Z,3.80
2022-11-17T17:49:04.175Z,3.80
2022-11-17T17:51:34.656Z,3.80
2022-11-17T17:54:04.492Z,3.80
2022-11-17T17:56:37.758Z,3.80
2022-11-17T17:59:07.929Z,3.80
2022-11-17T18:01:40.711Z,3.70
2022-11-17T18:04:15.887Z,3.70
2022-11-17T18:06:48.778Z,3.60
2022-11-17T18:09:21.065Z,3.70
2022-11-17T18:11:53.762Z,3.60
2022-11-17T18:14:25.197Z,3.60
2022-11-17T18:16:56.341Z,3.60
2022-11-17T18:19:32.557Z,3.70
2022-11-17T18:22:03.052Z,3.60
2022-11-17T18:24:33.073Z,3.60
2022-11-17T18:27:05.579Z,3.60
2022-11-17T18:29:35.650Z,3.60
2022-11-17T18:32:05.590Z,3.60
2022-11-17T18:34:35.461Z,3.60
2022-11-17T18:37:05.367Z,3.50
2022-11-17T18:39:35.203Z,3.50
2022-11-17T18:42:07.901Z,3.50
2022-11-17T18:44:37.751Z,3.50
2022-11-17T18:47:07.965Z,3.50
2022-11-17T18:49:38.017Z,3.50
2022-11-17T18:52:09.821Z,3.40
2022-11-17T18:54:39.688Z,3.40
2022-11-17T18:57:12.095Z,3.40
2022-11-17T18:59:41.921Z,3.30
2022-11-17T19:02:11.950Z,3.30
2022-11-17T19:04:41.774Z,3.30
2022-11-17T19:07:11.736Z,3.30
2022-11-17T19:09:41.653Z,3.20
2022-11-17T19:12:14.837Z,3.20
2022-11-17T19:14:44.691Z,3.20
2022-11-17T19:17:14.599Z,3.20
2022-11-17T19:19:44.494Z,3.20
2022-11-17T19:22:14.536Z,3.10
2022-11-17T19:24:44.717Z,3.10
2022-11-17T19:27:17.161Z,3.10
2022-11-17T19:29:49.268Z,3.00
2022-11-17T19:32:19.171Z,3.00
2022-11-17T19:34:49.087Z,2.90
2022-11-17T19:37:19.050Z,2.90
2022-11-17T19:39:52.082Z,2.90
2022-11-17T19:42:27.097Z,2.90
2022-11-17T19:44:58.055Z,2.80
2022-11-17T19:47:27.951Z,2.80
2022-11-17T19:49:57.841Z,2.80
2022-11-17T19:52:27.761Z,2.80
2022-11-17T19:54:57.630Z,2.70
2022-11-17T19:57:30.086Z,2.70
2022-11-17T20:00:00.006Z,2.70
2022-11-17T20:02:30.705Z,2.70
2022-11-17T20:05:01.850Z,2.70
2022-11-17T20:07:33.247Z,2.70
2022-11-17T20:10:03.263Z,2.70
2022-11-17T20:12:37.750Z,2.70
2022-11-17T20:15:11.430Z,2.70
2022-11-17T20:17:51.834Z,2.70
2022-11-17T20:20:21.958Z,2.70
2022-11-17T20:22:51.911Z,2.70
2022-11-17T20:25:21.791Z,2.60
2022-11-17T20:27:54.316Z,2.60
2022-11-17T20:30:24.194Z,2.60
2022-11-17T20:32:54.195Z,2.60
2022-11-17T20:35:24.054Z,2.60
2022-11-17T20:37:54.121Z,2.60
2022-11-17T20:40:24.157Z,2.60
2022-11-17T20:42:56.688Z,2.60
2022-11-17T20:45:27.059Z,2.50
2022-11-17T20:47:56.959Z,2.50
2022-11-17T20:50:27.084Z,2.50
2022-11-17T20:52:56.946Z,2.50
2022-11-17T20:55:26.965Z,2.60
2022-11-17T20:57:59.595Z,2.50
2022-11-17T21:00:29.473Z,2.60
2022-11-17T21:03:00.227Z,2.60
2022-11-17T21:05:30.129Z,2.60
2022-11-17T21:08:00.002Z,2.50
2022-11-17T21:10:30.139Z,2.50
2022-11-17T21:13:04.566Z,2.50
2022-11-17T21:15:34.454Z,2.60
2022-11-17T21:18:16.869Z,2.50
2022-11-17T21:20:46.832Z,2.60
2022-11-17T21:23:17.552Z,2.60
2022-11-17T21:25:47.465Z,2.60
2022-11-17T21:28:19.897Z,2.60
2022-11-17T21:30:49.794Z,2.50
2022-11-17T21:33:19.679Z,2.50
2022-11-17T21:35:49.615Z,2.50
2022-11-17T21:38:19.562Z,2.50
2022-11-17T21:40:49.510Z,2.50
2022-11-17T21:43:21.980Z,2.50
2022-11-17T21:45:51.965Z,2.40
2022-11-17T21:48:21.883Z,2.40
2022-11-17T21:50:51.909Z,2.40
2022-11-17T21:53:22.071Z,2.40
2022-11-17T21:55:51.951Z,2.40
2022-11-17T21:58:24.446Z,2.40
2022-11-17T22:00:54.368Z,2.30
2022-11-17T22:03:24.371Z,2.30
2022-11-17T22:05:59.468Z,2.30
2022-11-17T22:08:32.020Z,2.30
2022-11-17T22:11:06.811Z,2.30
2022-11-17T22:13:39.556Z,2.30
2022-11-17T22:16:13.694Z,2.20
2022-11-17T22:18:44.294Z,2.20
2022-11-17T22:21:14.227Z,2.30
2022-11-17T22:23:44.082Z,2.20
2022-11-17T22:26:14.208Z,2.20
2022-11-17T22:28:46.685Z,2.20
2022-11-17T22:31:16.534Z,2.20
2022-11-17T22:33:48.386Z,2.20
2022-11-17T22:36:18.675Z,2.20
2022-11-17T22:38:52.073Z,2.20
2022-11-17T22:41:24.313Z,2.20
2022-11-17T22:43:59.023Z,2.20
2022-11-17T22:46:30.557Z,2.10
2022-11-17T22:49:00.438Z,2.10
2022-11-17T22:51:42.836Z,2.10
2022-11-17T22:54:12.990Z,2.10
2022-11-17T22:56:42.843Z,2.10
2022-11-17T22:59:15.525Z,2.10
2022-11-17T23:01:45.636Z,2.10
2022-11-17T23:04:16.415Z,2.10
2022-11-17T23:06:46.647Z,2.10
2022-11-17T23:09:16.640Z,2.10
2022-11-17T23:11:46.838Z,2.10
2022-11-17T23:14:19.311Z,2.10
2022-11-17T23:16:49.179Z,2.10
2022-11-17T23:19:19.205Z,2.10
2022-11-17T23:21:49.389Z,2.10
2022-11-17T23:24:19.339Z,2.10
2022-11-17T23:26:49.414Z,2.10
2022-11-17T23:29:21.831Z,2.00
2022-11-17T23:31:51.691Z,2.00
2022-11-17T23:34:21.875Z,2.00
2022-11-17T23:36:51.746Z,2.00
2022-11-17T23:39:21.598Z,2.10
2022-11-17T23:41:51.500Z,2.00
2022-11-17T23:44:23.937Z,2.00
2022-11-17T23:46:53.803Z,2.00
2022-11-17T23:49:23.650Z,1.90
2022-11-17T23:51:53.474Z,1.90
2022-11-17T23:54:23.296Z,1.90
2022-11-17T23:56:53.236Z,1.90
2022-11-17T23:59:25.817Z,1.90
